sensor_id;sensor_type;location;lat;lon;timestamp;temperature;humidity
9193;DHT22;4631;49.296;10.560;2023-09-12T00:00:03;18.20;99.90
9193;DHT22;4631;49.296;10.560;2023-09-12T00:02:31;18.20;99.90
9193;DHT22;4631;49.296;10.560;2023-09-12T00:04:57;18.10;99.90
9193;DHT22;4631;49.296;10.560;2023-09-12T00:07:25;18.10;99.90
9193;DHT22;4631;49.296;10.560;2023-09-12T00:09:52;18.00;99.90
9193;DHT22;4631;49.296;10.560;2023-09-12T00:12:21;18.00;99.90
9193;DHT22;4631;49.296;10.560;2023-09-12T00:14:48;17.90;99.90
9193;DHT22;4631;49.296;10.560;2023-09-12T00:17:15;18.00;99.90
9193;DHT22;4631;49.296;10.560;2023-09-12T00:19:42;17.90;99.90
9193;DHT22;4631;49.296;10.560;2023-09-12T00:22:08;17.90;99.90
9193;DHT22;4631;49.296;10.560;2023-09-12T00:24:36;17.80;99.90
9193;DHT22;4631;49.296;10.560;2023-09-12T00:27:04;17.80;99.90
9193;DHT22;4631;49.296;10.560;2023-09-12T00:29:31;17.70;99.90
9193;DHT22;4631;49.296;10.560;2023-09-12T00:31:57;17.70;99.90
9193;DHT22;4631;49.296;10.560;2023-09-12T00:34:24;17.70;99.90
9193;DHT22;4631;49.296;10.560;2023-09-12T00:36:51;17.70;99.90
9193;DHT22;4631;49.296;10.560;2023-09-12T00:39:17;17.70;99.90
9193;DHT22;4631;49.296;10.560;2023-09-12T00:41:45;17.60;99.90
9193;DHT22;4631;49.296;10.560;2023-09-12T00:44:12;17.60;99.90
9193;DHT22;4631;49.296;10.560;2023-09-12T00:46:39;17.60;99.90
9193;DHT22;4631;49.296;10.560;2023-09-12T00:49:06;17.60;99.90
9193;DHT22;4631;49.296;10.560;2023-09-12T00:51:34;17.50;99.90
9193;DHT22;4631;49.296;10.560;2023-09-12T00:54:01;17.40;99.90
9193;DHT22;4631;49.296;10.560;2023-09-12T00:56:27;17.40;99.90
9193;DHT22;4631;49.296;10.560;2023-09-12T00:58:55;17.40;99.90
9193;DHT22;4631;49.296;10.560;2023-09-12T01:01:22;17.40;99.90
9193;DHT22;4631;49.296;10.560;2023-09-12T01:03:50;17.30;99.90
9193;DHT22;4631;49.296;10.560;2023-09-12T01:06:16;17.30;99.90
9193;DHT22;4631;49.296;10.560;2023-09-12T01:08:45;17.20;99.90
9193;DHT22;4631;49.296;10.560;2023-09-12T01:11:11;17.20;99.90
9193;DHT22;4631;49.296;10.560;2023-09-12T01:13:38;17.20;99.90
9193;DHT22;4631;49.296;10.560;2023-09-12T01:16:06;17.20;99.90
9193;DHT22;4631;49.296;10.560;2023-09-12T01:18:32;17.20;99.90
9193;DHT22;4631;49.296;10.560;2023-09-12T01:21:05;17.10;99.90
9193;DHT22;4631;49.296;10.560;2023-09-12T01:23:38;17.00;99.90
9193;DHT22;4631;49.296;10.560;2023-09-12T01:26:23;17.00;99.90
9193;DHT22;4631;49.296;10.560;2023-09-12T01:28:57;17.00;99.90
9193;DHT22;4631;49.296;10.560;2023-09-12T01:31:24;16.90;99.90
9193;DHT22;4631;49.296;10.560;2023-09-12T01:33:54;16.90;99.90
9193;DHT22;4631;49.296;10.560;2023-09-12T01:36:21;16.80;99.90
9193;DHT22;4631;49.296;10.560;2023-09-12T01:38:47;16.80;99.90
9193;DHT22;4631;49.296;10.560;2023-09-12T01:41:14;16.80;99.90
9193;DHT22;4631;49.296;10.560;2023-09-12T01:43:41;16.80;99.90
9193;DHT22;4631;49.296;10.560;2023-09-12T01:46:10;16.80;99.90
9193;DHT22;4631;49.296;10.560;2023-09-12T01:48:37;16.80;99.90
9193;DHT22;4631;49.296;10.560;2023-09-12T01:51:04;16.70;99.90
9193;DHT22;4631;49.296;10.560;2023-09-12T01:53:31;16.70;99.90
9193;DHT22;4631;49.296;10.560;2023-09-12T01:55:58;16.70;99.90
9193;DHT22;4631;49.296;10.560;2023-09-12T01:58:26;16.70;99.90
9193;DHT22;4631;49.296;10.560;2023-09-12T02:00:53;16.70;99.90
9193;DHT22;4631;49.296;10.560;2023-09-12T02:03:21;16.70;99.90
9193;DHT22;4631;49.296;10.560;2023-09-12T02:05:47;16.70;99.90
9193;DHT22;4631;49.296;10.560;2023-09-12T02:08:14;16.60;99.90
9193;DHT22;4631;49.296;10.560;2023-09-12T02:10:41;16.60;99.90
9193;DHT22;4631;49.296;10.560;2023-09-12T02:13:07;16.50;99.90
9193;DHT22;4631;49.296;10.560;2023-09-12T02:15:34;16.50;99.90
9193;DHT22;4631;49.296;10.560;2023-09-12T02:18:01;16.50;99.90
9193;DHT22;4631;49.296;10.560;2023-09-12T02:20:29;16.40;99.90
9193;DHT22;4631;49.296;10.560;2023-09-12T02:22:56;16.40;99.90
9193;DHT22;4631;49.296;10.560;2023-09-12T02:25:23;16.30;99.90
9193;DHT22;4631;49.296;10.560;2023-09-12T02:27:49;16.30;99.90
9193;DHT22;4631;49.296;10.560;2023-09-12T02:30:16;16.30;99.90
9193;DHT22;4631;49.296;10.560;2023-09-12T02:32:42;16.30;99.90
9193;DHT22;4631;49.296;10.560;2023-09-12T02:35:09;16.30;99.90
9193;DHT22;4631;49.296;10.560;2023-09-12T02:37:37;16.30;99.90
9193;DHT22;4631;49.296;10.560;2023-09-12T02:40:04;16.20;99.90
9193;DHT22;4631;49.296;10.560;2023-09-12T02:42:31;16.20;99.90
9193;DHT22;4631;49.296;10.560;2023-09-12T02:44:58;16.20;99.90
9193;DHT22;4631;49.296;10.560;2023-09-12T02:47:24;16.20;99.90
9193;DHT22;4631;49.296;10.560;2023-09-12T02:49:51;16.20;99.90
9193;DHT22;4631;49.296;10.560;2023-09-12T02:52:18;16.20;99.90
9193;DHT22;4631;49.296;10.560;2023-09-12T02:54:46;16.10;99.90
9193;DHT22;4631;49.296;10.560;2023-09-12T02:57:12;16.10;99.90
9193;DHT22;4631;49.296;10.560;2023-09-12T02:59:39;16.10;99.90
9193;DHT22;4631;49.296;10.560;2023-09-12T03:02:05;16.10;99.90
9193;DHT22;4631;49.296;10.560;2023-09-12T03:04:33;16.10;99.90
9193;DHT22;4631;49.296;10.560;2023-09-12T03:06:59;16.00;99.90
9193;DHT22;4631;49.296;10.560;2023-09-12T03:09:26;16.00;99.90
9193;DHT22;4631;49.296;10.560;2023-09-12T03:11:54;16.00;99.90
9193;DHT22;4631;49.296;10.560;2023-09-12T03:14:20;16.00;99.90
9193;DHT22;4631;49.296;10.560;2023-09-12T03:16:47;16.00;99.90
9193;DHT22;4631;49.296;10.560;2023-09-12T03:19:14;16.00;99.90
9193;DHT22;4631;49.296;10.560;2023-09-12T03:21:40;15.90;99.90
9193;DHT22;4631;49.296;10.560;2023-09-12T03:24:07;15.90;99.90
9193;DHT22;4631;49.296;10.560;2023-09-12T03:26:34;15.90;99.90
9193;DHT22;4631;49.296;10.560;2023-09-12T03:29:02;15.90;99.90
9193;DHT22;4631;49.296;10.560;2023-09-12T03:31:29;15.90;99.90
9193;DHT22;4631;49.296;10.560;2023-09-12T03:33:56;15.80;99.90
9193;DHT22;4631;49.296;10.560;2023-09-12T03:36:23;15.80;99.90
9193;DHT22;4631;49.296;10.560;2023-09-12T03:38:50;15.80;99.90
9193;DHT22;4631;49.296;10.560;2023-09-12T03:41:16;15.80;99.90
9193;DHT22;4631;49.296;10.560;2023-09-12T03:43:43;15.80;99.90
9193;DHT22;4631;49.296;10.560;2023-09-12T03:46:11;15.80;99.90
9193;DHT22;4631;49.296;10.560;2023-09-12T03:48:38;15.70;99.90
9193;DHT22;4631;49.296;10.560;2023-09-12T03:51:04;15.70;99.90
9193;DHT22;4631;49.296;10.560;2023-09-12T03:53:31;15.70;99.90
9193;DHT22;4631;49.296;10.560;2023-09-12T03:55:58;15.80;99.90
9193;DHT22;4631;49.296;10.560;2023-09-12T03:58:25;15.70;99.90
9193;DHT22;4631;49.296;10.560;2023-09-12T04:00:52;15.70;99.90
9193;DHT22;4631;49.296;10.560;2023-09-12T04:03:20;15.70;99.90
9193;DHT22;4631;49.296;10.560;2023-09-12T04:05:47;15.70;99.90
9193;DHT22;4631;49.296;10.560;2023-09-12T04:08:14;15.70;99.90
9193;DHT22;4631;49.296;10.560;2023-09-12T04:10:40;15.70;99.90
9193;DHT22;4631;49.296;10.560;2023-09-12T04:13:07;15.70;99.90
9193;DHT22;4631;49.296;10.560;2023-09-12T04:15:33;15.70;99.90
9193;DHT22;4631;49.296;10.560;2023-09-12T04:18:00;15.60;99.90
9193;DHT22;4631;49.296;10.560;2023-09-12T04:20:28;15.60;99.90
9193;DHT22;4631;49.296;10.560;2023-09-12T04:22:55;15.60;99.90
9193;DHT22;4631;49.296;10.560;2023-09-12T04:25:21;15.60;99.90
9193;DHT22;4631;49.296;10.560;2023-09-12T04:27:48;15.50;99.90
9193;DHT22;4631;49.296;10.560;2023-09-12T04:30:15;15.50;99.90
9193;DHT22;4631;49.296;10.560;2023-09-12T04:32:41;15.50;99.90
9193;DHT22;4631;49.296;10.560;2023-09-12T04:35:08;15.50;99.90
9193;DHT22;4631;49.296;10.560;2023-09-12T04:37:36;15.50;99.90
9193;DHT22;4631;49.296;10.560;2023-09-12T04:40:03;15.50;99.90
9193;DHT22;4631;49.296;10.560;2023-09-12T04:42:32;15.50;99.90
9193;DHT22;4631;49.296;10.560;2023-09-12T04:44:58;15.40;99.90
9193;DHT22;4631;49.296;10.560;2023-09-12T04:47:25;15.40;99.90
9193;DHT22;4631;49.296;10.560;2023-09-12T04:49:52;15.40;99.90
9193;DHT22;4631;49.296;10.560;2023-09-12T04:52:19;15.40;99.90
9193;DHT22;4631;49.296;10.560;2023-09-12T04:54:47;15.40;99.90
9193;DHT22;4631;49.296;10.560;2023-09-12T04:57:14;15.30;99.90
9193;DHT22;4631;49.296;10.560;2023-09-12T04:59:40;15.30;99.90
9193;DHT22;4631;49.296;10.560;2023-09-12T05:02:07;15.30;99.90
9193;DHT22;4631;49.296;10.560;2023-09-12T05:04:34;15.30;99.90
9193;DHT22;4631;49.296;10.560;2023-09-12T05:07:00;15.30;99.90
9193;DHT22;4631;49.296;10.560;2023-09-12T05:09:27;15.40;99.90
9193;DHT22;4631;49.296;10.560;2023-09-12T05:11:55;15.40;99.90
9193;DHT22;4631;49.296;10.560;2023-09-12T05:14:22;15.30;99.90
9193;DHT22;4631;49.296;10.560;2023-09-12T05:16:48;15.30;99.90
9193;DHT22;4631;49.296;10.560;2023-09-12T05:19:15;15.40;99.90
9193;DHT22;4631;49.296;10.560;2023-09-12T05:21:41;15.30;99.90
9193;DHT22;4631;49.296;10.560;2023-09-12T05:24:11;15.40;99.90
9193;DHT22;4631;49.296;10.560;2023-09-12T05:26:37;15.40;99.90
9193;DHT22;4631;49.296;10.560;2023-09-12T05:29:05;15.40;99.90
9193;DHT22;4631;49.296;10.560;2023-09-12T05:31:32;15.40;99.90
9193;DHT22;4631;49.296;10.560;2023-09-12T05:33:59;15.40;99.90
9193;DHT22;4631;49.296;10.560;2023-09-12T05:36:25;15.40;99.90
9193;DHT22;4631;49.296;10.560;2023-09-12T05:38:52;15.40;99.90
9193;DHT22;4631;49.296;10.560;2023-09-12T05:41:19;15.40;99.90
9193;DHT22;4631;49.296;10.560;2023-09-12T05:43:45;15.40;99.90
9193;DHT22;4631;49.296;10.560;2023-09-12T05:46:13;15.40;99.90
9193;DHT22;4631;49.296;10.560;2023-09-12T05:48:40;15.50;99.90
9193;DHT22;4631;49.296;10.560;2023-09-12T05:51:06;15.50;99.90
9193;DHT22;4631;49.296;10.560;2023-09-12T05:53:33;15.50;99.90
9193;DHT22;4631;49.296;10.560;2023-09-12T05:56:00;15.50;99.90
9193;DHT22;4631;49.296;10.560;2023-09-12T05:58:27;15.40;99.90
9193;DHT22;4631;49.296;10.560;2023-09-12T06:00:55;15.50;99.90
9193;DHT22;4631;49.296;10.560;2023-09-12T06:03:23;15.50;99.90
9193;DHT22;4631;49.296;10.560;2023-09-12T06:05:49;15.50;99.90
9193;DHT22;4631;49.296;10.560;2023-09-12T06:08:16;15.50;99.90
9193;DHT22;4631;49.296;10.560;2023-09-12T06:10:42;15.60;99.90
9193;DHT22;4631;49.296;10.560;2023-09-12T06:13:09;15.60;99.90
9193;DHT22;4631;49.296;10.560;2023-09-12T06:15:36;15.70;99.90
9193;DHT22;4631;49.296;10.560;2023-09-12T06:18:02;15.70;99.90
9193;DHT22;4631;49.296;10.560;2023-09-12T06:20:31;15.70;99.90
9193;DHT22;4631;49.296;10.560;2023-09-12T06:22:57;15.80;99.90
9193;DHT22;4631;49.296;10.560;2023-09-12T06:25:24;15.80;99.90
9193;DHT22;4631;49.296;10.560;2023-09-12T06:27:51;15.90;99.90
9193;DHT22;4631;49.296;10.560;2023-09-12T06:30:18;16.00;99.90
9193;DHT22;4631;49.296;10.560;2023-09-12T06:32:44;16.00;99.90
9193;DHT22;4631;49.296;10.560;2023-09-12T06:35:11;16.00;99.90
9193;DHT22;4631;49.296;10.560;2023-09-12T06:37:39;16.10;99.90
9193;DHT22;4631;49.296;10.560;2023-09-12T06:40:06;16.20;99.90
9193;DHT22;4631;49.296;10.560;2023-09-12T06:42:33;16.20;99.90
9193;DHT22;4631;49.296;10.560;2023-09-12T06:45:00;16.30;99.90
9193;DHT22;4631;49.296;10.560;2023-09-12T06:47:26;16.30;99.90
9193;DHT22;4631;49.296;10.560;2023-09-12T06:49:53;16.40;99.90
9193;DHT22;4631;49.296;10.560;2023-09-12T06:52:19;16.50;99.90
9193;DHT22;4631;49.296;10.560;2023-09-12T06:54:47;16.60;99.90
9193;DHT22;4631;49.296;10.560;2023-09-12T06:57:14;16.70;99.90
9193;DHT22;4631;49.296;10.560;2023-09-12T06:59:41;16.70;99.90
9193;DHT22;4631;49.296;10.560;2023-09-12T07:02:07;16.80;99.90
9193;DHT22;4631;49.296;10.560;2023-09-12T07:04:35;16.90;99.90
9193;DHT22;4631;49.296;10.560;2023-09-12T07:07:01;17.00;99.90
9193;DHT22;4631;49.296;10.560;2023-09-12T07:09:29;17.10;99.90
9193;DHT22;4631;49.296;10.560;2023-09-12T07:11:57;17.20;99.90
9193;DHT22;4631;49.296;10.560;2023-09-12T07:14:24;17.40;99.90
9193;DHT22;4631;49.296;10.560;2023-09-12T07:16:51;17.40;99.90
9193;DHT22;4631;49.296;10.560;2023-09-12T07:19:17;17.50;99.90
9193;DHT22;4631;49.296;10.560;2023-09-12T07:21:44;17.60;99.90
9193;DHT22;4631;49.296;10.560;2023-09-12T07:24:11;17.70;99.90
9193;DHT22;4631;49.296;10.560;2023-09-12T07:26:38;17.80;99.90
9193;DHT22;4631;49.296;10.560;2023-09-12T07:29:06;18.00;99.90
9193;DHT22;4631;49.296;10.560;2023-09-12T07:31:33;18.10;99.90
9193;DHT22;4631;49.296;10.560;2023-09-12T07:33:59;18.20;99.90
9193;DHT22;4631;49.296;10.560;2023-09-12T07:36:26;18.30;99.90
9193;DHT22;4631;49.296;10.560;2023-09-12T07:38:52;18.40;99.90
9193;DHT22;4631;49.296;10.560;2023-09-12T07:41:19;18.50;99.90
9193;DHT22;4631;49.296;10.560;2023-09-12T07:43:46;18.60;99.90
9193;DHT22;4631;49.296;10.560;2023-09-12T07:46:14;18.70;99.90
9193;DHT22;4631;49.296;10.560;2023-09-12T07:48:43;18.70;99.90
9193;DHT22;4631;49.296;10.560;2023-09-12T07:51:11;18.90;99.90
9193;DHT22;4631;49.296;10.560;2023-09-12T07:53:37;19.00;99.90
9193;DHT22;4631;49.296;10.560;2023-09-12T07:56:04;19.10;99.90
9193;DHT22;4631;49.296;10.560;2023-09-12T07:58:31;19.30;99.90
9193;DHT22;4631;49.296;10.560;2023-09-12T08:00:57;19.40;99.90
9193;DHT22;4631;49.296;10.560;2023-09-12T08:03:25;19.50;99.90
9193;DHT22;4631;49.296;10.560;2023-09-12T08:05:56;19.70;99.90
9193;DHT22;4631;49.296;10.560;2023-09-12T08:08:23;19.80;99.90
9193;DHT22;4631;49.296;10.560;2023-09-12T08:10:49;20.00;99.90
9193;DHT22;4631;49.296;10.560;2023-09-12T08:13:16;20.20;99.90
9193;DHT22;4631;49.296;10.560;2023-09-12T08:15:43;20.40;99.90
9193;DHT22;4631;49.296;10.560;2023-09-12T08:18:09;20.60;99.90
9193;DHT22;4631;49.296;10.560;2023-09-12T08:20:37;20.80;99.90
9193;DHT22;4631;49.296;10.560;2023-09-12T08:23:04;21.00;99.90
9193;DHT22;4631;49.296;10.560;2023-09-12T08:25:31;21.20;99.90
9193;DHT22;4631;49.296;10.560;2023-09-12T08:27:57;21.40;99.90
9193;DHT22;4631;49.296;10.560;2023-09-12T08:30:24;21.70;99.90
9193;DHT22;4631;49.296;10.560;2023-09-12T08:32:51;21.90;99.90
9193;DHT22;4631;49.296;10.560;2023-09-12T08:35:17;22.00;99.90
9193;DHT22;4631;49.296;10.560;2023-09-12T08:37:45;22.20;99.90
9193;DHT22;4631;49.296;10.560;2023-09-12T08:40:13;22.40;99.90
9193;DHT22;4631;49.296;10.560;2023-09-12T08:42:40;22.50;99.90
9193;DHT22;4631;49.296;10.560;2023-09-12T08:45:09;22.70;99.90
9193;DHT22;4631;49.296;10.560;2023-09-12T08:47:37;22.90;99.90
9193;DHT22;4631;49.296;10.560;2023-09-12T08:50:05;22.90;99.90
9193;DHT22;4631;49.296;10.560;2023-09-12T08:52:32;23.00;99.90
9193;DHT22;4631;49.296;10.560;2023-09-12T08:55:00;23.00;99.90
9193;DHT22;4631;49.296;10.560;2023-09-12T08:57:28;23.10;99.90
9193;DHT22;4631;49.296;10.560;2023-09-12T08:59:56;23.10;99.90
9193;DHT22;4631;49.296;10.560;2023-09-12T09:02:23;23.20;99.90
9193;DHT22;4631;49.296;10.560;2023-09-12T09:04:49;23.30;99.90
9193;DHT22;4631;49.296;10.560;2023-09-12T09:07:16;23.40;99.90
9193;DHT22;4631;49.296;10.560;2023-09-12T09:09:45;23.40;99.90
9193;DHT22;4631;49.296;10.560;2023-09-12T09:12:13;23.50;99.90
9193;DHT22;4631;49.296;10.560;2023-09-12T09:14:40;23.60;99.90
9193;DHT22;4631;49.296;10.560;2023-09-12T09:17:07;23.70;99.90
9193;DHT22;4631;49.296;10.560;2023-09-12T09:19:45;23.80;99.90
9193;DHT22;4631;49.296;10.560;2023-09-12T09:22:13;24.00;99.90
9193;DHT22;4631;49.296;10.560;2023-09-12T09:24:39;24.10;99.90
9193;DHT22;4631;49.296;10.560;2023-09-12T09:27:06;24.20;99.90
9193;DHT22;4631;49.296;10.560;2023-09-12T09:29:44;24.30;99.90
9193;DHT22;4631;49.296;10.560;2023-09-12T09:32:16;24.30;99.90
9193;DHT22;4631;49.296;10.560;2023-09-12T09:34:43;24.40;99.90
9193;DHT22;4631;49.296;10.560;2023-09-12T09:37:09;24.50;99.90
9193;DHT22;4631;49.296;10.560;2023-09-12T09:39:36;24.60;99.90
9193;DHT22;4631;49.296;10.560;2023-09-12T09:42:03;24.70;99.90
9193;DHT22;4631;49.296;10.560;2023-09-12T09:44:29;24.80;99.90
9193;DHT22;4631;49.296;10.560;2023-09-12T09:47:00;25.00;99.90
9193;DHT22;4631;49.296;10.560;2023-09-12T09:49:27;25.10;99.90
9193;DHT22;4631;49.296;10.560;2023-09-12T09:51:57;25.20;99.90
9193;DHT22;4631;49.296;10.560;2023-09-12T09:54:24;25.40;99.90
9193;DHT22;4631;49.296;10.560;2023-09-12T09:56:52;25.50;99.90
9193;DHT22;4631;49.296;10.560;2023-09-12T09:59:21;25.60;99.90
9193;DHT22;4631;49.296;10.560;2023-09-12T10:01:48;25.70;99.90
9193;DHT22;4631;49.296;10.560;2023-09-12T10:04:16;25.90;99.90
9193;DHT22;4631;49.296;10.560;2023-09-12T10:06:44;25.90;99.90
9193;DHT22;4631;49.296;10.560;2023-09-12T10:09:12;26.10;99.90
9193;DHT22;4631;49.296;10.560;2023-09-12T10:11:39;26.20;99.90
9193;DHT22;4631;49.296;10.560;2023-09-12T10:14:06;26.30;99.90
9193;DHT22;4631;49.296;10.560;2023-09-12T10:16:34;26.40;99.90
9193;DHT22;4631;49.296;10.560;2023-09-12T10:19:04;26.50;99.90
9193;DHT22;4631;49.296;10.560;2023-09-12T10:21:34;26.70;99.90
9193;DHT22;4631;49.296;10.560;2023-09-12T10:24:02;26.80;99.90
9193;DHT22;4631;49.296;10.560;2023-09-12T10:26:29;26.80;99.90
9193;DHT22;4631;49.296;10.560;2023-09-12T10:28:56;27.00;99.90
9193;DHT22;4631;49.296;10.560;2023-09-12T10:31:24;27.10;99.90
9193;DHT22;4631;49.296;10.560;2023-09-12T10:33:51;27.10;99.90
9193;DHT22;4631;49.296;10.560;2023-09-12T10:36:17;27.20;99.90
9193;DHT22;4631;49.296;10.560;2023-09-12T10:38:47;27.30;99.90
9193;DHT22;4631;49.296;10.560;2023-09-12T10:41:14;27.40;99.90
9193;DHT22;4631;49.296;10.560;2023-09-12T10:43:41;27.50;99.90
9193;DHT22;4631;49.296;10.560;2023-09-12T10:46:08;27.60;99.90
9193;DHT22;4631;49.296;10.560;2023-09-12T10:48:35;27.70;99.90
9193;DHT22;4631;49.296;10.560;2023-09-12T10:51:02;27.80;99.90
9193;DHT22;4631;49.296;10.560;2023-09-12T10:53:30;27.80;99.90
9193;DHT22;4631;49.296;10.560;2023-09-12T10:56:00;27.90;99.90
9193;DHT22;4631;49.296;10.560;2023-09-12T10:58:27;28.00;99.90
9193;DHT22;4631;49.296;10.560;2023-09-12T11:03:39;28.30;99.90
9193;DHT22;4631;49.296;10.560;2023-09-12T11:06:06;28.40;99.90
9193;DHT22;4631;49.296;10.560;2023-09-12T11:08:45;28.50;99.90
9193;DHT22;4631;49.296;10.560;2023-09-12T11:11:35;28.60;99.90
9193;DHT22;4631;49.296;10.560;2023-09-12T11:14:04;28.60;99.90
9193;DHT22;4631;49.296;10.560;2023-09-12T11:16:31;28.70;99.90
9193;DHT22;4631;49.296;10.560;2023-09-12T11:19:15;28.90;99.90
9193;DHT22;4631;49.296;10.560;2023-09-12T11:21:42;29.00;99.90
9193;DHT22;4631;49.296;10.560;2023-09-12T11:24:09;29.00;99.90
9193;DHT22;4631;49.296;10.560;2023-09-12T11:29:34;29.20;99.90
9193;DHT22;4631;49.296;10.560;2023-09-12T11:32:01;29.30;99.90
9193;DHT22;4631;49.296;10.560;2023-09-12T11:34:29;29.40;99.90
9193;DHT22;4631;49.296;10.560;2023-09-12T11:36:58;29.40;99.90
9193;DHT22;4631;49.296;10.560;2023-09-12T11:39:27;29.50;99.90
9193;DHT22;4631;49.296;10.560;2023-09-12T11:41:55;29.70;99.90
9193;DHT22;4631;49.296;10.560;2023-09-12T11:44:22;29.80;99.90
9193;DHT22;4631;49.296;10.560;2023-09-12T11:46:50;29.80;99.90
9193;DHT22;4631;49.296;10.560;2023-09-12T11:49:18;30.00;99.90
9193;DHT22;4631;49.296;10.560;2023-09-12T11:51:46;30.10;99.90
9193;DHT22;4631;49.296;10.560;2023-09-12T11:54:13;30.20;99.90
9193;DHT22;4631;49.296;10.560;2023-09-12T11:56:40;30.30;99.90
9193;DHT22;4631;49.296;10.560;2023-09-12T11:59:07;30.40;99.90
9193;DHT22;4631;49.296;10.560;2023-09-12T12:01:34;30.50;99.90
9193;DHT22;4631;49.296;10.560;2023-09-12T12:04:02;30.50;99.90
9193;DHT22;4631;49.296;10.560;2023-09-12T12:06:29;30.60;99.90
9193;DHT22;4631;49.296;10.560;2023-09-12T12:08:56;30.60;99.90
9193;DHT22;4631;49.296;10.560;2023-09-12T12:11:23;30.80;99.90
9193;DHT22;4631;49.296;10.560;2023-09-12T12:13:53;30.90;99.90
9193;DHT22;4631;49.296;10.560;2023-09-12T12:16:20;31.00;99.90
9193;DHT22;4631;49.296;10.560;2023-09-12T12:18:47;31.00;99.90
9193;DHT22;4631;49.296;10.560;2023-09-12T12:21:15;31.10;99.90
9193;DHT22;4631;49.296;10.560;2023-09-12T12:23:42;31.30;99.90
9193;DHT22;4631;49.296;10.560;2023-09-12T12:26:08;31.30;99.90
9193;DHT22;4631;49.296;10.560;2023-09-12T12:28:36;31.50;99.90
9193;DHT22;4631;49.296;10.560;2023-09-12T12:31:02;31.50;99.90
9193;DHT22;4631;49.296;10.560;2023-09-12T12:33:34;31.70;99.90
9193;DHT22;4631;49.296;10.560;2023-09-12T12:36:01;31.70;99.90
9193;DHT22;4631;49.296;10.560;2023-09-12T12:38:32;31.80;99.90
9193;DHT22;4631;49.296;10.560;2023-09-12T12:40:59;31.90;99.90
9193;DHT22;4631;49.296;10.560;2023-09-12T12:43:26;32.00;99.90
9193;DHT22;4631;49.296;10.560;2023-09-12T12:45:53;32.10;99.90
9193;DHT22;4631;49.296;10.560;2023-09-12T12:48:28;32.20;99.90
9193;DHT22;4631;49.296;10.560;2023-09-12T12:50:55;32.20;99.90
9193;DHT22;4631;49.296;10.560;2023-09-12T12:56:05;32.20;99.90
9193;DHT22;4631;49.296;10.560;2023-09-12T12:58:32;32.20;99.90
9193;DHT22;4631;49.296;10.560;2023-09-12T13:01:00;32.30;99.90
9193;DHT22;4631;49.296;10.560;2023-09-12T13:03:27;32.40;99.90
9193;DHT22;4631;49.296;10.560;2023-09-12T13:05:53;32.60;99.90
9193;DHT22;4631;49.296;10.560;2023-09-12T13:08:20;32.80;99.90
9193;DHT22;4631;49.296;10.560;2023-09-12T13:10:47;32.90;99.90
9193;DHT22;4631;49.296;10.560;2023-09-12T13:13:15;33.00;99.90
9193;DHT22;4631;49.296;10.560;2023-09-12T13:15:42;32.90;99.90
9193;DHT22;4631;49.296;10.560;2023-09-12T13:18:09;33.00;99.90
9193;DHT22;4631;49.296;10.560;2023-09-12T13:20:36;33.10;99.90
9193;DHT22;4631;49.296;10.560;2023-09-12T13:23:02;33.10;99.90
9193;DHT22;4631;49.296;10.560;2023-09-12T13:25:29;33.00;99.90
9193;DHT22;4631;49.296;10.560;2023-09-12T13:27:56;32.90;99.90
9193;DHT22;4631;49.296;10.560;2023-09-12T13:30:24;32.90;99.90
9193;DHT22;4631;49.296;10.560;2023-09-12T13:32:51;32.90;99.90
9193;DHT22;4631;49.296;10.560;2023-09-12T13:35:18;33.00;99.90
9193;DHT22;4631;49.296;10.560;2023-09-12T13:37:44;33.10;99.90
9193;DHT22;4631;49.296;10.560;2023-09-12T13:40:11;33.10;99.90
9193;DHT22;4631;49.296;10.560;2023-09-12T13:42:38;33.10;99.90
9193;DHT22;4631;49.296;10.560;2023-09-12T13:45:05;33.10;99.90
9193;DHT22;4631;49.296;10.560;2023-09-12T13:47:33;33.10;99.90
9193;DHT22;4631;49.296;10.560;2023-09-12T13:50:00;33.20;99.90
9193;DHT22;4631;49.296;10.560;2023-09-12T13:52:26;33.30;99.90
9193;DHT22;4631;49.296;10.560;2023-09-12T13:54:53;33.40;99.90
9193;DHT22;4631;49.296;10.560;2023-09-12T13:57:20;33.40;99.90
9193;DHT22;4631;49.296;10.560;2023-09-12T13:59:46;33.30;99.90
9193;DHT22;4631;49.296;10.560;2023-09-12T14:02:13;33.40;99.90
9193;DHT22;4631;49.296;10.560;2023-09-12T14:04:41;33.60;99.90
9193;DHT22;4631;49.296;10.560;2023-09-12T14:07:08;33.70;99.90
9193;DHT22;4631;49.296;10.560;2023-09-12T14:09:35;33.90;99.90
9193;DHT22;4631;49.296;10.560;2023-09-12T14:12:01;34.00;99.90
9193;DHT22;4631;49.296;10.560;2023-09-12T14:14:28;34.00;99.90
9193;DHT22;4631;49.296;10.560;2023-09-12T14:16:55;34.00;99.40
9193;DHT22;4631;49.296;10.560;2023-09-12T14:19:22;34.00;99.40
9193;DHT22;4631;49.296;10.560;2023-09-12T14:21:50;33.90;99.80
9193;DHT22;4631;49.296;10.560;2023-09-12T14:24:16;33.90;99.90
9193;DHT22;4631;49.296;10.560;2023-09-12T14:26:43;33.90;99.90
9193;DHT22;4631;49.296;10.560;2023-09-12T14:29:10;33.90;99.80
9193;DHT22;4631;49.296;10.560;2023-09-12T14:31:37;34.00;99.90
9193;DHT22;4631;49.296;10.560;2023-09-12T14:34:03;34.00;97.90
9193;DHT22;4631;49.296;10.560;2023-09-12T14:36:31;34.10;98.10
9193;DHT22;4631;49.296;10.560;2023-09-12T14:38:59;34.20;98.10
9193;DHT22;4631;49.296;10.560;2023-09-12T14:41:29;34.30;97.90
9193;DHT22;4631;49.296;10.560;2023-09-12T14:43:55;34.30;98.50
9193;DHT22;4631;49.296;10.560;2023-09-12T14:46:22;34.30;99.10
9193;DHT22;4631;49.296;10.560;2023-09-12T14:48:49;34.40;98.70
9193;DHT22;4631;49.296;10.560;2023-09-12T14:51:16;34.30;98.70
9193;DHT22;4631;49.296;10.560;2023-09-12T14:53:42;34.30;98.00
9193;DHT22;4631;49.296;10.560;2023-09-12T14:56:11;34.10;98.10
9193;DHT22;4631;49.296;10.560;2023-09-12T14:58:37;34.00;98.10
9193;DHT22;4631;49.296;10.560;2023-09-12T15:01:04;33.90;99.10
9193;DHT22;4631;49.296;10.560;2023-09-12T15:03:30;33.90;98.70
9193;DHT22;4631;49.296;10.560;2023-09-12T15:06:04;34.00;99.30
9193;DHT22;4631;49.296;10.560;2023-09-12T15:08:31;34.00;99.30
9193;DHT22;4631;49.296;10.560;2023-09-12T15:10:57;34.20;98.90
9193;DHT22;4631;49.296;10.560;2023-09-12T15:13:25;34.10;99.30
9193;DHT22;4631;49.296;10.560;2023-09-12T15:15:52;33.90;98.30
9193;DHT22;4631;49.296;10.560;2023-09-12T15:18:18;33.70;98.70
9193;DHT22;4631;49.296;10.560;2023-09-12T15:20:45;33.60;99.20
9193;DHT22;4631;49.296;10.560;2023-09-12T15:23:11;33.40;99.30
9193;DHT22;4631;49.296;10.560;2023-09-12T15:25:38;33.30;98.80
9193;DHT22;4631;49.296;10.560;2023-09-12T15:28:05;33.20;99.50
9193;DHT22;4631;49.296;10.560;2023-09-12T15:30:33;33.20;99.50
9193;DHT22;4631;49.296;10.560;2023-09-12T15:33:00;33.20;98.80
9193;DHT22;4631;49.296;10.560;2023-09-12T15:35:26;33.30;98.70
9193;DHT22;4631;49.296;10.560;2023-09-12T15:37:52;33.30;99.10
9193;DHT22;4631;49.296;10.560;2023-09-12T15:40:18;33.30;99.70
9193;DHT22;4631;49.296;10.560;2023-09-12T15:42:45;33.40;99.50
9193;DHT22;4631;49.296;10.560;2023-09-12T15:45:12;33.30;98.50
9193;DHT22;4631;49.296;10.560;2023-09-12T15:47:42;33.30;98.70
9193;DHT22;4631;49.296;10.560;2023-09-12T15:50:09;33.10;98.10
9193;DHT22;4631;49.296;10.560;2023-09-12T15:52:36;33.00;98.50